sensor_id;sensor_type;location;lat;lon;timestamp;P1;durP1;ratioP1;P2;durP2;ratioP2
15633;SDS011;14654;48.898;8.308;2023-06-22T00:01:00;8.23;;;6.97;;
15633;SDS011;14654;48.898;8.308;2023-06-22T00:03:26;7.20;;;6.10;;
15633;SDS011;14654;48.898;8.308;2023-06-22T00:05:52;6.07;;;5.57;;
15633;SDS011;14654;48.898;8.308;2023-06-22T00:08:18;6.93;;;5.80;;
15633;SDS011;14654;48.898;8.308;2023-06-22T00:10:44;6.97;;;6.37;;
15633;SDS011;14654;48.898;8.308;2023-06-22T00:13:11;7.93;;;6.13;;
15633;SDS011;14654;48.898;8.308;2023-06-22T00:15:38;6.30;;;5.70;;
15633;SDS011;14654;48.898;8.308;2023-06-22T00:18:06;6.07;;;5.40;;
15633;SDS011;14654;48.898;8.308;2023-06-22T00:20:32;5.20;;;4.80;;
15633;SDS011;14654;48.898;8.308;2023-06-22T00:22:58;6.00;;;5.40;;
15633;SDS011;14654;48.898;8.308;2023-06-22T00:25:25;6.33;;;5.73;;
15633;SDS011;14654;48.898;8.308;2023-06-22T00:27:50;6.13;;;5.23;;
15633;SDS011;14654;48.898;8.308;2023-06-22T00:30:16;36.23;;;13.93;;
15633;SDS011;14654;48.898;8.308;2023-06-22T00:32:42;19.70;;;11.47;;
15633;SDS011;14654;48.898;8.308;2023-06-22T00:35:08;21.63;;;16.40;;
15633;SDS011;14654;48.898;8.308;2023-06-22T00:37:35;29.40;;;22.07;;
15633;SDS011;14654;48.898;8.308;2023-06-22T00:40:01;39.90;;;28.17;;
15633;SDS011;14654;48.898;8.308;2023-06-22T00:42:27;43.43;;;28.00;;
15633;SDS011;14654;48.898;8.308;2023-06-22T00:44:52;35.83;;;28.60;;
15633;SDS011;14654;48.898;8.308;2023-06-22T00:47:17;35.43;;;29.27;;
15633;SDS011;14654;48.898;8.308;2023-06-22T00:49:43;36.67;;;30.10;;
15633;SDS011;14654;48.898;8.308;2023-06-22T00:52:10;48.87;;;36.37;;
15633;SDS011;14654;48.898;8.308;2023-06-22T00:54:38;51.67;;;36.27;;
15633;SDS011;14654;48.898;8.308;2023-06-22T00:57:08;42.17;;;33.17;;
15633;SDS011;14654;48.898;8.308;2023-06-22T00:59:36;36.50;;;29.53;;
15633;SDS011;14654;48.898;8.308;2023-06-22T01:02:02;37.90;;;32.20;;
15633;SDS011;14654;48.898;8.308;2023-06-22T01:04:34;44.93;;;35.93;;
15633;SDS011;14654;48.898;8.308;2023-06-22T01:10:00;57.90;;;40.27;;
15633;SDS011;14654;48.898;8.308;2023-06-22T01:12:33;68.33;;;46.87;;
15633;SDS011;14654;48.898;8.308;2023-06-22T01:15:37;66.30;;;47.43;;
15633;SDS011;14654;48.898;8.308;2023-06-22T01:17:58;70.77;;;48.13;;
15633;SDS011;14654;48.898;8.308;2023-06-22T01:20:25;65.33;;;45.77;;
15633;SDS011;14654;48.898;8.308;2023-06-22T01:25:47;83.00;;;54.37;;
15633;SDS011;14654;48.898;8.308;2023-06-22T01:31:19;87.03;;;57.17;;
15633;SDS011;14654;48.898;8.308;2023-06-22T01:33:49;80.57;;;53.83;;
15633;SDS011;14654;48.898;8.308;2023-06-22T01:36:17;84.73;;;56.43;;
15633;SDS011;14654;48.898;8.308;2023-06-22T01:38:43;92.83;;;58.87;;
15633;SDS011;14654;48.898;8.308;2023-06-22T01:41:10;83.70;;;57.43;;
15633;SDS011;14654;48.898;8.308;2023-06-22T01:43:37;84.87;;;55.60;;
15633;SDS011;14654;48.898;8.308;2023-06-22T01:46:03;72.93;;;53.03;;
15633;SDS011;14654;48.898;8.308;2023-06-22T01:48:29;91.20;;;59.13;;
15633;SDS011;14654;48.898;8.308;2023-06-22T01:50:55;86.97;;;56.80;;
15633;SDS011;14654;48.898;8.308;2023-06-22T01:53:21;88.13;;;57.73;;
15633;SDS011;14654;48.898;8.308;2023-06-22T01:55:47;77.70;;;52.87;;
15633;SDS011;14654;48.898;8.308;2023-06-22T01:58:13;89.20;;;60.07;;
15633;SDS011;14654;48.898;8.308;2023-06-22T02:00:40;96.07;;;60.43;;
15633;SDS011;14654;48.898;8.308;2023-06-22T02:03:10;84.00;;;56.10;;
15633;SDS011;14654;48.898;8.308;2023-06-22T02:05:43;89.97;;;58.07;;
15633;SDS011;14654;48.898;8.308;2023-06-22T02:08:15;81.20;;;54.83;;
15633;SDS011;14654;48.898;8.308;2023-06-22T02:10:46;86.40;;;55.90;;
15633;SDS011;14654;48.898;8.308;2023-06-22T02:13:13;86.87;;;58.80;;
15633;SDS011;14654;48.898;8.308;2023-06-22T02:15:40;86.47;;;57.63;;
15633;SDS011;14654;48.898;8.308;2023-06-22T02:18:06;89.07;;;58.97;;
15633;SDS011;14654;48.898;8.308;2023-06-22T02:20:32;88.40;;;58.67;;
15633;SDS011;14654;48.898;8.308;2023-06-22T02:22:57;83.73;;;56.60;;
15633;SDS011;14654;48.898;8.308;2023-06-22T02:25:24;89.17;;;58.63;;
15633;SDS011;14654;48.898;8.308;2023-06-22T02:27:49;85.83;;;56.73;;
15633;SDS011;14654;48.898;8.308;2023-06-22T02:30:14;99.03;;;62.63;;
15633;SDS011;14654;48.898;8.308;2023-06-22T02:32:41;91.73;;;60.57;;
15633;SDS011;14654;48.898;8.308;2023-06-22T02:35:08;99.60;;;64.10;;
15633;SDS011;14654;48.898;8.308;2023-06-22T02:37:35;85.23;;;61.20;;
15633;SDS011;14654;48.898;8.308;2023-06-22T02:40:03;82.07;;;57.37;;
15633;SDS011;14654;48.898;8.308;2023-06-22T02:42:32;96.53;;;61.40;;
15633;SDS011;14654;48.898;8.308;2023-06-22T02:44:57;100.07;;;64.43;;
15633;SDS011;14654;48.898;8.308;2023-06-22T02:47:22;90.13;;;62.67;;
15633;SDS011;14654;48.898;8.308;2023-06-22T02:49:48;103.13;;;67.20;;
15633;SDS011;14654;48.898;8.308;2023-06-22T02:52:13;96.17;;;65.77;;
15633;SDS011;14654;48.898;8.308;2023-06-22T02:54:39;98.77;;;66.77;;
15633;SDS011;14654;48.898;8.308;2023-06-22T02:57:04;116.20;;;68.83;;
15633;SDS011;14654;48.898;8.308;2023-06-22T02:59:30;102.17;;;68.60;;
15633;SDS011;14654;48.898;8.308;2023-06-22T03:01:55;99.40;;;67.13;;
15633;SDS011;14654;48.898;8.308;2023-06-22T03:04:20;106.47;;;70.40;;
15633;SDS011;14654;48.898;8.308;2023-06-22T03:06:46;104.93;;;67.80;;
15633;SDS011;14654;48.898;8.308;2023-06-22T03:09:15;109.83;;;69.33;;
15633;SDS011;14654;48.898;8.308;2023-06-22T03:11:42;104.70;;;68.63;;
15633;SDS011;14654;48.898;8.308;2023-06-22T03:14:07;108.03;;;66.17;;
15633;SDS011;14654;48.898;8.308;2023-06-22T03:16:32;98.03;;;65.57;;
15633;SDS011;14654;48.898;8.308;2023-06-22T03:18:58;108.57;;;68.13;;
15633;SDS011;14654;48.898;8.308;2023-06-22T03:21:25;101.30;;;65.37;;
15633;SDS011;14654;48.898;8.308;2023-06-22T03:23:52;96.60;;;64.77;;
15633;SDS011;14654;48.898;8.308;2023-06-22T03:26:18;100.57;;;63.60;;
15633;SDS011;14654;48.898;8.308;2023-06-22T03:28:43;89.67;;;60.40;;
15633;SDS011;14654;48.898;8.308;2023-06-22T03:31:09;88.23;;;59.87;;
15633;SDS011;14654;48.898;8.308;2023-06-22T03:33:34;97.13;;;64.33;;
15633;SDS011;14654;48.898;8.308;2023-06-22T03:35:59;97.87;;;63.20;;
15633;SDS011;14654;48.898;8.308;2023-06-22T03:38:25;82.00;;;57.23;;
15633;SDS011;14654;48.898;8.308;2023-06-22T03:40:50;106.23;;;66.20;;
15633;SDS011;14654;48.898;8.308;2023-06-22T03:43:15;91.50;;;59.73;;
15633;SDS011;14654;48.898;8.308;2023-06-22T03:45:40;97.17;;;60.23;;
15633;SDS011;14654;48.898;8.308;2023-06-22T03:48:06;98.77;;;61.57;;
15633;SDS011;14654;48.898;8.308;2023-06-22T03:50:31;105.40;;;65.60;;
15633;SDS011;14654;48.898;8.308;2023-06-22T03:52:57;96.27;;;60.07;;
15633;SDS011;14654;48.898;8.308;2023-06-22T03:55:22;79.23;;;52.67;;
15633;SDS011;14654;48.898;8.308;2023-06-22T03:57:47;70.03;;;50.93;;
15633;SDS011;14654;48.898;8.308;2023-06-22T04:00:13;125.53;;;77.70;;
15633;SDS011;14654;48.898;8.308;2023-06-22T04:02:40;100.93;;;71.83;;
15633;SDS011;14654;48.898;8.308;2023-06-22T04:05:07;101.93;;;71.97;;
15633;SDS011;14654;48.898;8.308;2023-06-22T04:07:33;121.83;;;76.20;;
15633;SDS011;14654;48.898;8.308;2023-06-22T04:09:59;117.20;;;72.63;;
15633;SDS011;14654;48.898;8.308;2023-06-22T04:12:24;113.67;;;73.53;;
15633;SDS011;14654;48.898;8.308;2023-06-22T04:14:49;103.77;;;72.20;;
15633;SDS011;14654;48.898;8.308;2023-06-22T04:17:15;100.00;;;69.93;;
15633;SDS011;14654;48.898;8.308;2023-06-22T04:19:40;112.90;;;76.07;;
15633;SDS011;14654;48.898;8.308;2023-06-22T04:22:06;100.83;;;67.73;;
15633;SDS011;14654;48.898;8.308;2023-06-22T04:24:32;83.37;;;60.17;;
15633;SDS011;14654;48.898;8.308;2023-06-22T04:26:58;90.73;;;64.97;;
15633;SDS011;14654;48.898;8.308;2023-06-22T04:29:25;107.97;;;68.73;;
15633;SDS011;14654;48.898;8.308;2023-06-22T04:31:53;98.97;;;63.77;;
15633;SDS011;14654;48.898;8.308;2023-06-22T04:34:21;70.60;;;53.23;;
15633;SDS011;14654;48.898;8.308;2023-06-22T04:36:46;81.03;;;55.17;;
15633;SDS011;14654;48.898;8.308;2023-06-22T04:39:11;69.93;;;51.33;;
15633;SDS011;14654;48.898;8.308;2023-06-22T04:41:37;72.50;;;52.67;;
15633;SDS011;14654;48.898;8.308;2023-06-22T04:44:12;88.10;;;60.63;;
15633;SDS011;14654;48.898;8.308;2023-06-22T04:46:50;78.57;;;56.03;;
15633;SDS011;14654;48.898;8.308;2023-06-22T04:49:24;89.07;;;62.40;;
15633;SDS011;14654;48.898;8.308;2023-06-22T04:51:58;77.30;;;54.97;;
15633;SDS011;14654;48.898;8.308;2023-06-22T04:54:27;87.63;;;60.97;;
15633;SDS011;14654;48.898;8.308;2023-06-22T04:56:53;94.27;;;60.73;;
15633;SDS011;14654;48.898;8.308;2023-06-22T04:59:22;92.03;;;60.57;;
15633;SDS011;14654;48.898;8.308;2023-06-22T05:01:56;97.10;;;59.77;;
15633;SDS011;14654;48.898;8.308;2023-06-22T05:04:23;107.17;;;62.20;;
15633;SDS011;14654;48.898;8.308;2023-06-22T05:06:50;115.10;;;64.83;;
15633;SDS011;14654;48.898;8.308;2023-06-22T05:09:16;85.37;;;54.33;;
15633;SDS011;14654;48.898;8.308;2023-06-22T05:11:42;93.80;;;59.17;;
15633;SDS011;14654;48.898;8.308;2023-06-22T05:14:08;102.03;;;59.43;;
15633;SDS011;14654;48.898;8.308;2023-06-22T05:16:33;87.07;;;53.87;;
15633;SDS011;14654;48.898;8.308;2023-06-22T05:18:59;78.80;;;50.33;;
15633;SDS011;14654;48.898;8.308;2023-06-22T05:21:25;77.33;;;48.33;;
15633;SDS011;14654;48.898;8.308;2023-06-22T05:23:52;72.30;;;42.73;;
15633;SDS011;14654;48.898;8.308;2023-06-22T05:26:18;54.13;;;37.53;;
15633;SDS011;14654;48.898;8.308;2023-06-22T05:28:44;64.83;;;41.07;;
15633;SDS011;14654;48.898;8.308;2023-06-22T05:31:11;60.23;;;37.17;;
15633;SDS011;14654;48.898;8.308;2023-06-22T05:33:38;60.90;;;37.77;;
15633;SDS011;14654;48.898;8.308;2023-06-22T05:36:03;58.63;;;37.33;;
15633;SDS011;14654;48.898;8.308;2023-06-22T05:38:29;53.50;;;34.03;;
15633;SDS011;14654;48.898;8.308;2023-06-22T05:40:54;38.90;;;27.80;;
15633;SDS011;14654;48.898;8.308;2023-06-22T05:43:20;47.93;;;30.57;;
15633;SDS011;14654;48.898;8.308;2023-06-22T05:45:45;49.07;;;32.00;;
15633;SDS011;14654;48.898;8.308;2023-06-22T05:48:10;46.80;;;28.10;;
15633;SDS011;14654;48.898;8.308;2023-06-22T05:50:36;37.17;;;25.13;;
15633;SDS011;14654;48.898;8.308;2023-06-22T05:53:02;26.07;;;19.60;;
15633;SDS011;14654;48.898;8.308;2023-06-22T05:55:27;20.83;;;17.60;;
15633;SDS011;14654;48.898;8.308;2023-06-22T05:57:52;22.60;;;16.73;;
15633;SDS011;14654;48.898;8.308;2023-06-22T06:00:18;18.87;;;16.83;;
15633;SDS011;14654;48.898;8.308;2023-06-22T06:02:44;21.87;;;16.53;;
15633;SDS011;14654;48.898;8.308;2023-06-22T06:05:10;19.60;;;16.70;;
15633;SDS011;14654;48.898;8.308;2023-06-22T06:07:38;15.90;;;14.07;;
15633;SDS011;14654;48.898;8.308;2023-06-22T06:10:04;17.33;;;12.77;;
15633;SDS011;14654;48.898;8.308;2023-06-22T06:12:31;14.13;;;12.67;;
15633;SDS011;14654;48.898;8.308;2023-06-22T06:14:56;13.87;;;12.53;;
15633;SDS011;14654;48.898;8.308;2023-06-22T06:17:21;14.20;;;12.37;;
15633;SDS011;14654;48.898;8.308;2023-06-22T06:19:47;12.67;;;11.43;;
15633;SDS011;14654;48.898;8.308;2023-06-22T06:22:12;12.83;;;11.53;;
15633;SDS011;14654;48.898;8.308;2023-06-22T06:24:37;14.03;;;10.67;;
15633;SDS011;14654;48.898;8.308;2023-06-22T06:27:03;11.27;;;9.93;;
15633;SDS011;14654;48.898;8.308;2023-06-22T06:29:29;11.30;;;10.17;;
15633;SDS011;14654;48.898;8.308;2023-06-22T06:31:55;10.37;;;9.10;;
15633;SDS011;14654;48.898;8.308;2023-06-22T06:34:21;10.47;;;9.13;;
15633;SDS011;14654;48.898;8.308;2023-06-22T06:36:47;10.40;;;8.80;;
15633;SDS011;14654;48.898;8.308;2023-06-22T06:39:12;9.60;;;8.73;;
15633;SDS011;14654;48.898;8.308;2023-06-22T06:41:38;9.00;;;8.20;;
15633;SDS011;14654;48.898;8.308;2023-06-22T06:44:03;9.98;;;8.80;;
15633;SDS011;14654;48.898;8.308;2023-06-22T06:46:28;10.30;;;8.77;;
15633;SDS011;14654;48.898;8.308;2023-06-22T06:48:54;9.00;;;8.20;;
15633;SDS011;14654;48.898;8.308;2023-06-22T06:51:19;9.20;;;8.32;;
15633;SDS011;14654;48.898;8.308;2023-06-22T06:53:44;11.52;;;8.23;;
15633;SDS011;14654;48.898;8.308;2023-06-22T06:56:10;8.87;;;8.07;;
15633;SDS011;14654;48.898;8.308;2023-06-22T06:58:35;12.23;;;8.80;;
15633;SDS011;14654;48.898;8.308;2023-06-22T07:01:01;8.93;;;8.13;;
15633;SDS011;14654;48.898;8.308;2023-06-22T07:03:28;10.13;;;8.50;;
15633;SDS011;14654;48.898;8.308;2023-06-22T07:05:53;10.10;;;8.07;;
15633;SDS011;14654;48.898;8.308;2023-06-22T07:08:18;8.63;;;7.75;;
15633;SDS011;14654;48.898;8.308;2023-06-22T07:10:44;9.50;;;7.88;;
15633;SDS011;14654;48.898;8.308;2023-06-22T07:13:09;8.25;;;7.32;;
15633;SDS011;14654;48.898;8.308;2023-06-22T07:15:35;7.72;;;7.00;;
15633;SDS011;14654;48.898;8.308;2023-06-22T07:18:00;9.18;;;7.25;;
15633;SDS011;14654;48.898;8.308;2023-06-22T07:20:25;7.88;;;7.05;;
15633;SDS011;14654;48.898;8.308;2023-06-22T07:22:51;7.15;;;6.50;;
15633;SDS011;14654;48.898;8.308;2023-06-22T07:25:16;7.50;;;6.80;;
15633;SDS011;14654;48.898;8.308;2023-06-22T07:30:12;7.60;;;6.60;;
15633;SDS011;14654;48.898;8.308;2023-06-22T07:32:38;6.80;;;6.07;;
15633;SDS011;14654;48.898;8.308;2023-06-22T07:35:03;6.20;;;5.60;;
15633;SDS011;14654;48.898;8.308;2023-06-22T07:37:29;7.28;;;6.57;;
15633;SDS011;14654;48.898;8.308;2023-06-22T07:39:55;7.88;;;6.68;;
15633;SDS011;14654;48.898;8.308;2023-06-22T07:42:27;7.95;;;6.28;;
15633;SDS011;14654;48.898;8.308;2023-06-22T07:44:53;6.35;;;5.75;;
15633;SDS011;14654;48.898;8.308;2023-06-22T07:47:19;7.50;;;6.60;;
15633;SDS011;14654;48.898;8.308;2023-06-22T07:49:48;7.55;;;6.22;;
15633;SDS011;14654;48.898;8.308;2023-06-22T07:52:13;6.97;;;6.28;;
15633;SDS011;14654;48.898;8.308;2023-06-22T07:54:38;7.88;;;6.18;;
15633;SDS011;14654;48.898;8.308;2023-06-22T07:57:04;7.00;;;6.32;;
15633;SDS011;14654;48.898;8.308;2023-06-22T07:59:29;8.63;;;6.47;;
15633;SDS011;14654;48.898;8.308;2023-06-22T08:01:55;7.32;;;6.50;;
15633;SDS011;14654;48.898;8.308;2023-06-22T08:04:20;6.43;;;5.93;;
15633;SDS011;14654;48.898;8.308;2023-06-22T08:06:46;8.43;;;6.20;;
15633;SDS011;14654;48.898;8.308;2023-06-22T08:09:11;7.15;;;6.53;;
15633;SDS011;14654;48.898;8.308;2023-06-22T08:11:37;7.85;;;6.32;;
15633;SDS011;14654;48.898;8.308;2023-06-22T08:14:02;7.82;;;6.72;;
15633;SDS011;14654;48.898;8.308;2023-06-22T08:16:28;7.20;;;5.63;;
15633;SDS011;14654;48.898;8.308;2023-06-22T08:18:53;6.57;;;5.97;;
15633;SDS011;14654;48.898;8.308;2023-06-22T08:21:19;8.73;;;6.35;;
15633;SDS011;14654;48.898;8.308;2023-06-22T08:23:45;7.35;;;6.20;;
15633;SDS011;14654;48.898;8.308;2023-06-22T08:26:10;6.22;;;5.63;;
15633;SDS011;14654;48.898;8.308;2023-06-22T08:28:35;8.73;;;5.40;;
15633;SDS011;14654;48.898;8.308;2023-06-22T08:31:01;5.60;;;5.10;;
15633;SDS011;14654;48.898;8.308;2023-06-22T08:33:28;6.22;;;5.63;;
15633;SDS011;14654;48.898;8.308;2023-06-22T08:35:55;7.00;;;5.80;;
15633;SDS011;14654;48.898;8.308;2023-06-22T08:38:21;6.15;;;5.57;;
15633;SDS011;14654;48.898;8.308;2023-06-22T08:40:46;6.43;;;5.63;;
15633;SDS011;14654;48.898;8.308;2023-06-22T08:43:12;6.10;;;5.60;;
15633;SDS011;14654;48.898;8.308;2023-06-22T08:45:37;6.22;;;5.53;;
15633;SDS011;14654;48.898;8.308;2023-06-22T08:48:02;7.03;;;6.32;;
15633;SDS011;14654;48.898;8.308;2023-06-22T08:50:28;10.80;;;6.53;;
15633;SDS011;14654;48.898;8.308;2023-06-22T08:52:53;6.45;;;5.22;;
15633;SDS011;14654;48.898;8.308;2023-06-22T08:55:18;6.05;;;5.45;;
15633;SDS011;14654;48.898;8.308;2023-06-22T08:57:44;8.02;;;5.85;;
15633;SDS011;14654;48.898;8.308;2023-06-22T09:00:09;8.38;;;6.35;;
15633;SDS011;14654;48.898;8.308;2023-06-22T09:02:42;6.80;;;6.07;;
15633;SDS011;14654;48.898;8.308;2023-06-22T09:05:08;8.43;;;6.47;;
15633;SDS011;14654;48.898;8.308;2023-06-22T09:07:34;7.00;;;6.28;;
15633;SDS011;14654;48.898;8.308;2023-06-22T09:09:59;6.30;;;5.70;;
15633;SDS011;14654;48.898;8.308;2023-06-22T09:12:25;6.88;;;6.00;;
15633;SDS011;14654;48.898;8.308;2023-06-22T09:14:52;8.00;;;6.18;;
15633;SDS011;14654;48.898;8.308;2023-06-22T09:17:18;6.88;;;6.18;;
15633;SDS011;14654;48.898;8.308;2023-06-22T09:19:43;6.78;;;6.18;;
15633;SDS011;14654;48.898;8.308;2023-06-22T09:22:09;6.20;;;5.70;;
15633;SDS011;14654;48.898;8.308;2023-06-22T09:24:34;7.55;;;6.03;;
15633;SDS011;14654;48.898;8.308;2023-06-22T09:26:59;8.43;;;6.50;;
15633;SDS011;14654;48.898;8.308;2023-06-22T09:29:25;7.32;;;6.32;;
15633;SDS011;14654;48.898;8.308;2023-06-22T09:31:50;7.03;;;6.30;;
15633;SDS011;14654;48.898;8.308;2023-06-22T09:34:18;6.13;;;5.63;;
15633;SDS011;14654;48.898;8.308;2023-06-22T09:36:45;6.75;;;5.93;;
15633;SDS011;14654;48.898;8.308;2023-06-22T09:39:13;7.68;;;6.97;;
15633;SDS011;14654;48.898;8.308;2023-06-22T09:41:39;6.45;;;5.95;;
15633;SDS011;14654;48.898;8.308;2023-06-22T09:44:04;7.80;;;6.32;;
15633;SDS011;14654;48.898;8.308;2023-06-22T09:46:29;8.82;;;6.18;;
15633;SDS011;14654;48.898;8.308;2023-06-22T09:48:55;8.20;;;6.55;;
15633;SDS011;14654;48.898;8.308;2023-06-22T09:51:20;12.25;;;6.60;;
15633;SDS011;14654;48.898;8.308;2023-06-22T09:53:46;7.88;;;6.57;;
15633;SDS011;14654;48.898;8.308;2023-06-22T09:56:12;7.90;;;7.10;;
15633;SDS011;14654;48.898;8.308;2023-06-22T09:58:40;7.88;;;6.70;;
15633;SDS011;14654;48.898;8.308;2023-06-22T10:01:06;7.93;;;6.63;;
15633;SDS011;14654;48.898;8.308;2023-06-22T10:03:32;7.05;;;6.22;;
15633;SDS011;14654;48.898;8.308;2023-06-22T10:05:57;6.15;;;5.65;;
15633;SDS011;14654;48.898;8.308;2023-06-22T10:08:22;7.15;;;6.45;;
15633;SDS011;14654;48.898;8.308;2023-06-22T10:10:48;6.60;;;6.05;;
15633;SDS011;14654;48.898;8.308;2023-06-22T10:13:13;6.63;;;6.10;;
15633;SDS011;14654;48.898;8.308;2023-06-22T10:15:39;6.50;;;5.90;;
15633;SDS011;14654;48.898;8.308;2023-06-22T10:18:05;7.20;;;6.60;;
15633;SDS011;14654;48.898;8.308;2023-06-22T10:20:31;7.18;;;6.47;;
15633;SDS011;14654;48.898;8.308;2023-06-22T10:22:56;7.53;;;6.60;;
15633;SDS011;14654;48.898;8.308;2023-06-22T10:25:21;8.48;;;6.45;;
15633;SDS011;14654;48.898;8.308;2023-06-22T10:27:47;7.97;;;7.18;;
15633;SDS011;14654;48.898;8.308;2023-06-22T10:30:12;7.75;;;6.40;;
15633;SDS011;14654;48.898;8.308;2023-06-22T10:32:38;7.03;;;6.32;;
15633;SDS011;14654;48.898;8.308;2023-06-22T10:35:04;7.43;;;6.72;;
15633;SDS011;14654;48.898;8.308;2023-06-22T10:37:30;9.40;;;7.13;;
15633;SDS011;14654;48.898;8.308;2023-06-22T10:39:56;7.32;;;6.63;;
15633;SDS011;14654;48.898;8.308;2023-06-22T10:42:21;8.30;;;7.50;;
15633;SDS011;14654;48.898;8.308;2023-06-22T10:44:46;8.82;;;7.03;;
15633;SDS011;14654;48.898;8.308;2023-06-22T10:47:12;7.25;;;6.30;;
15633;SDS011;14654;48.898;8.308;2023-06-22T10:49:38;8.00;;;6.88;;
15633;SDS011;14654;48.898;8.308;2023-06-22T10:52:03;8.00;;;7.20;;
15633;SDS011;14654;48.898;8.308;2023-06-22T10:54:29;11.27;;;7.13;;
15633;SDS011;14654;48.898;8.308;2023-06-22T10:56:55;8.82;;;6.88;;
15633;SDS011;14654;48.898;8.308;2023-06-22T10:59:20;7.85;;;7.25;;
15633;SDS011;14654;48.898;8.308;2023-06-22T11:01:48;8.52;;;6.80;;
15633;SDS011;14654;48.898;8.308;2023-06-22T11:04:13;7.43;;;6.72;;
15633;SDS011;14654;48.898;8.308;2023-06-22T11:06:39;7.35;;;6.68;;
15633;SDS011;14654;48.898;8.308;2023-06-22T11:09:04;10.70;;;7.70;;
15633;SDS011;14654;48.898;8.308;2023-06-22T11:11:29;7.30;;;6.50;;
15633;SDS011;14654;48.898;8.308;2023-06-22T11:13:55;7.20;;;6.50;;
15633;SDS011;14654;48.898;8.308;2023-06-22T11:16:20;8.20;;;7.15;;
15633;SDS011;14654;48.898;8.308;2023-06-22T11:18:45;10.73;;;7.82;;
15633;SDS011;14654;48.898;8.308;2023-06-22T11:21:11;7.10;;;6.15;;
15633;SDS011;14654;48.898;8.308;2023-06-22T11:23:36;8.23;;;7.35;;
15633;SDS011;14654;48.898;8.308;2023-06-22T11:26:01;8.60;;;6.78;;
15633;SDS011;14654;48.898;8.308;2023-06-22T11:28:27;8.77;;;7.43;;
15633;SDS011;14654;48.898;8.308;2023-06-22T11:30:52;8.15;;;7.35;;
15633;SDS011;14654;48.898;8.308;2023-06-22T11:33:18;9.10;;;7.78;;
15633;SDS011;14654;48.898;8.308;2023-06-22T11:35:43;8.80;;;7.28;;
15633;SDS011;14654;48.898;8.308;2023-06-22T11:38:09;9.45;;;7.35;;
15633;SDS011;14654;48.898;8.308;2023-06-22T11:40:34;9.07;;;7.20;;
15633;SDS011;14654;48.898;8.308;2023-06-22T11:42:59;9.38;;;7.95;;
15633;SDS011;14654;48.898;8.308;2023-06-22T11:45:24;8.43;;;7.10;;
15633;SDS011;14654;48.898;8.308;2023-06-22T11:47:50;7.57;;;6.45;;
15633;SDS011;14654;48.898;8.308;2023-06-22T11:50:15;7.75;;;6.40;;
15633;SDS011;14654;48.898;8.308;2023-06-22T11:52:41;8.80;;;7.15;;
15633;SDS011;14654;48.898;8.308;2023-06-22T11:55:06;11.85;;;7.60;;
15633;SDS011;14654;48.898;8.308;2023-06-22T11:57:35;14.40;;;8.07;;
15633;SDS011;14654;48.898;8.308;2023-06-22T12:00:02;7.90;;;7.13;;
15633;SDS011;14654;48.898;8.308;2023-06-22T12:02:49;8.77;;;7.22;;
15633;SDS011;14654;48.898;8.308;2023-06-22T12:05:16;7.20;;;6.45;;
15633;SDS011;14654;48.898;8.308;2023-06-22T12:07:41;7.68;;;6.72;;
15633;SDS011;14654;48.898;8.308;2023-06-22T12:10:07;7.45;;;6.78;;
15633;SDS011;14654;48.898;8.308;2023-06-22T12:12:32;6.78;;;6.00;;
15633;SDS011;14654;48.898;8.308;2023-06-22T12:14:57;8.10;;;6.97;;
15633;SDS011;14654;48.898;8.308;2023-06-22T12:17:25;27.35;;;11.13;;
15633;SDS011;14654;48.898;8.308;2023-06-22T12:19:51;8.98;;;7.60;;
15633;SDS011;14654;48.898;8.308;2023-06-22T12:22:16;10.60;;;7.13;;
15633;SDS011;14654;48.898;8.308;2023-06-22T12:24:41;10.93;;;7.85;;
15633;SDS011;14654;48.898;8.308;2023-06-22T12:27:07;7.80;;;6.82;;
15633;SDS011;14654;48.898;8.308;2023-06-22T12:29:32;8.63;;;7.07;;
15633;SDS011;14654;48.898;8.308;2023-06-22T12:31:57;7.63;;;6.60;;
15633;SDS011;14654;48.898;8.308;2023-06-22T12:34:23;7.70;;;6.95;;
15633;SDS011;14654;48.898;8.308;2023-06-22T12:36:48;7.25;;;6.65;;
15633;SDS011;14654;48.898;8.308;2023-06-22T12:39:14;7.18;;;6.30;;
15633;SDS011;14654;48.898;8.308;2023-06-22T12:41:40;7.30;;;6.70;;
15633;SDS011;14654;48.898;8.308;2023-06-22T12:44:05;7.28;;;6.60;;
15633;SDS011;14654;48.898;8.308;2023-06-22T12:46:30;8.32;;;7.25;;
15633;SDS011;14654;48.898;8.308;2023-06-22T12:49:02;12.18;;;8.45;;
15633;SDS011;14654;48.898;8.308;2023-06-22T12:51:28;8.18;;;7.00;;
15633;SDS011;14654;48.898;8.308;2023-06-22T12:53:54;9.13;;;8.20;;
15633;SDS011;14654;48.898;8.308;2023-06-22T12:56:19;9.93;;;7.57;;
15633;SDS011;14654;48.898;8.308;2023-06-22T12:58:44;9.38;;;8.48;;
15633;SDS011;14654;48.898;8.308;2023-06-22T13:01:10;8.63;;;7.82;;
15633;SDS011;14654;48.898;8.308;2023-06-22T13:03:35;8.52;;;7.63;;
15633;SDS011;14654;48.898;8.308;2023-06-22T13:06:00;9.95;;;7.50;;
15633;SDS011;14654;48.898;8.308;2023-06-22T13:08:26;8.05;;;7.32;;
15633;SDS011;14654;48.898;8.308;2023-06-22T13:10:51;8.43;;;7.57;;
15633;SDS011;14654;48.898;8.308;2023-06-22T13:13:16;8.05;;;7.25;;
15633;SDS011;14654;48.898;8.308;2023-06-22T13:15:42;8.40;;;7.60;;
15633;SDS011;14654;48.898;8.308;2023-06-22T13:18:07;8.05;;;7.05;;
15633;SDS011;14654;48.898;8.308;2023-06-22T13:20:32;7.97;;;7.25;;
15633;SDS011;14654;48.898;8.308;2023-06-22T13:22:58;8.38;;;7.53;;
15633;SDS011;14654;48.898;8.308;2023-06-22T13:25:23;10.73;;;8.13;;
15633;SDS011;14654;48.898;8.308;2023-06-22T13:27:51;9.43;;;8.43;;
15633;SDS011;14654;48.898;8.308;2023-06-22T13:30:16;7.80;;;7.07;;
15633;SDS011;14654;48.898;8.308;2023-06-22T13:32:42;9.82;;;7.70;;
15633;SDS011;14654;48.898;8.308;2023-06-22T13:35:08;9.48;;;8.02;;
15633;SDS011;14654;48.898;8.308;2023-06-22T13:37:34;8.40;;;7.60;;
15633;SDS011;14654;48.898;8.308;2023-06-22T13:40:00;8.50;;;7.68;;
15633;SDS011;14654;48.898;8.308;2023-06-22T13:42:27;9.15;;;8.07;;
15633;SDS011;14654;48.898;8.308;2023-06-22T13:44:52;8.98;;;7.35;;
15633;SDS011;14654;48.898;8.308;2023-06-22T13:47:18;8.30;;;7.50;;
15633;SDS011;14654;48.898;8.308;2023-06-22T13:49:43;9.38;;;8.23;;
15633;SDS011;14654;48.898;8.308;2023-06-22T13:52:08;9.63;;;8.30;;
15633;SDS011;14654;48.898;8.308;2023-06-22T13:54:35;8.35;;;7.43;;
15633;SDS011;14654;48.898;8.308;2023-06-22T13:57:01;10.73;;;9.00;;
15633;SDS011;14654;48.898;8.308;2023-06-22T13:59:27;7.93;;;7.20;;
15633;SDS011;14654;48.898;8.308;2023-06-22T14:01:53;9.05;;;7.70;;
15633;SDS011;14654;48.898;8.308;2023-06-22T14:04:19;8.23;;;7.43;;
15633;SDS011;14654;48.898;8.308;2023-06-22T14:06:44;9.90;;;7.40;;
15633;SDS011;14654;48.898;8.308;2023-06-22T14:09:09;9.00;;;8.00;;
15633;SDS011;14654;48.898;8.308;2023-06-22T14:11:35;9.93;;;7.85;;
15633;SDS011;14654;48.898;8.308;2023-06-22T14:14:00;8.30;;;7.47;;
15633;SDS011;14654;48.898;8.308;2023-06-22T14:16:25;9.85;;;8.05;;
15633;SDS011;14654;48.898;8.308;2023-06-22T14:18:51;8.57;;;7.68;;
15633;SDS011;14654;48.898;8.308;2023-06-22T14:21:16;8.07;;;7.25;;
15633;SDS011;14654;48.898;8.308;2023-06-22T14:23:41;8.48;;;7.68;;
15633;SDS011;14654;48.898;8.308;2023-06-22T14:26:07;8.82;;;7.28;;
15633;SDS011;14654;48.898;8.308;2023-06-22T14:28:32;10.32;;;8.48;;
15633;SDS011;14654;48.898;8.308;2023-06-22T14:30:57;8.90;;;7.80;;
15633;SDS011;14654;48.898;8.308;2023-06-22T14:33:23;11.60;;;8.13;;
15633;SDS011;14654;48.898;8.308;2023-06-22T14:35:48;12.80;;;7.95;;
15633;SDS011;14654;48.898;8.308;2023-06-22T14:38:14;8.57;;;7.65;;
15633;SDS011;14654;48.898;8.308;2023-06-22T14:40:39;7.75;;;6.68;;